Time;durP1;ratioP1;P1;durP2;ratioP2;P2;SDS_P1;SDS_P2;PMS_P1;PMS_P2;Temp;Humidity;BMP_temperature;BMP_pressure;BME280_temperature;BME280_humidity;BME280_pressure;Samples;Min_cycle;Max_cycle;Signal;HPM_P1;HPM_P2
2020/12/03 00:01:21;;;;;;;64.82;40.20;;;;;;;-2.86;73.51;100570.66;126664;1098;23405;-74
2020/12/03 00:03:56;;;;;;;65.32;40.12;;;;;;;-2.86;73.60;100554.64;126793;1098;23419;-74
2020/12/03 00:06:34;;;;;;;62.60;37.03;;;;;;;-2.88;73.65;100554.77;126708;1098;23350;-76
2020/12/03 00:09:10;;;;;;;65.00;39.73;;;;;;;-2.86;73.67;100549.30;126581;1099;23408;-76
2020/12/03 00:11:45;;;;;;;73.35;41.85;;;;;;;-2.86;74.08;100538.62;126509;1099;23542;-74
2020/12/03 00:14:13;;;;;;;69.05;39.53;;;;;;;-2.84;74.10;100541.20;126631;1098;26849;-74
2020/12/03 00:16:42;;;;;;;73.10;43.23;;;;;;;-2.84;73.38;100551.88;126665;1098;23405;-72
2020/12/03 00:19:12;;;;;;;53.23;33.65;;;;;;;-2.83;73.79;100558.95;126669;1098;23571;-74
2020/12/03 00:21:53;;;;;;;63.83;39.38;;;;;;;-2.87;73.50;100553.79;126610;1098;23341;-73
2020/12/03 00:24:26;;;;;;;66.75;39.25;;;;;;;-2.89;74.14;100550.36;126601;1098;23392;-73
2020/12/03 00:26:55;;;;;;;70.62;42.33;;;;;;;-2.89;74.11;100560.19;126676;1098;23395;-73
2020/12/03 00:29:24;;;;;;;68.20;38.88;;;;;;;-2.94;74.05;100554.31;126660;1098;23723;-73
2020/12/03 00:31:53;;;;;;;68.35;41.42;;;;;;;-2.98;74.00;100531.44;126694;1098;23383;-74
2020/12/03 00:34:21;;;;;;;64.32;40.63;;;;;;;-3.03;74.10;100525.52;126670;1098;26826;-73
2020/12/03 00:36:50;;;;;;;67.65;39.98;;;;;;;-3.04;73.56;100519.34;126669;1098;23340;-74
2020/12/03 00:39:18;;;;;;;65.15;39.88;;;;;;;-3.04;74.10;100527.34;126669;1098;23344;-74
2020/12/03 00:41:51;;;;;;;72.60;41.48;;;;;;;-3.04;73.98;100521.16;126646;1099;23495;-74
2020/12/03 00:44:21;;;;;;;65.60;39.75;;;;;;;-3.07;74.10;100506.21;126299;1099;25665;-73
2020/12/03 00:46:51;;;;;;;67.77;40.77;;;;;;;-3.13;73.78;100511.94;126709;1098;23415;-74
2020/12/03 00:49:19;;;;;;;70.80;41.83;;;;;;;-3.17;74.11;100500.60;126636;1098;23339;-73
2020/12/03 00:51:51;;;;;;;71.42;39.45;;;;;;;-3.21;74.21;100496.42;126592;1098;23324;-74
2020/12/03 00:54:23;;;;;;;67.42;38.65;;;;;;;-3.25;73.73;100505.58;126525;1098;23334;-74
2020/12/03 00:56:53;;;;;;;75.55;42.35;;;;;;;-3.29;73.54;100486.27;126747;1098;27846;-73
2020/12/03 00:59:22;;;;;;;68.60;40.03;;;;;;;-3.29;73.67;100477.37;126651;1099;23382;-74
2020/12/03 01:01:52;;;;;;;78.77;45.83;;;;;;;-3.31;74.02;100480.17;126646;1098;23357;-73
2020/12/03 01:04:20;;;;;;;72.70;41.48;;;;;;;-3.30;74.27;100486.36;126716;1098;26440;-75
2020/12/03 01:06:49;;;;;;;67.03;40.57;;;;;;;-3.32;74.04;100466.92;126659;1098;23360;-75
2020/12/03 01:09:17;;;;;;;76.80;44.58;;;;;;;-3.34;73.69;100471.50;126644;1098;23395;-74
2020/12/03 01:11:46;;;;;;;69.35;41.77;;;;;;;-3.34;73.72;100460.83;126693;1098;23342;-74
2020/12/03 01:14:14;;;;;;;79.15;43.40;;;;;;;-3.36;74.12;100455.58;126764;1098;23427;-75
2020/12/03 01:16:43;;;;;;;78.12;42.00;;;;;;;-3.36;73.86;100454.73;126726;1098;26789;-73
2020/12/03 01:19:12;;;;;;;67.47;40.98;;;;;;;-3.38;73.95;100451.31;126641;1098;23395;-75
2020/12/03 01:21:40;;;;;;;79.37;44.53;;;;;;;-3.42;74.07;100439.12;126716;1098;23343;-74
2020/12/03 01:24:08;;;;;;;74.10;40.00;;;;;;;-3.43;74.73;100432.09;126639;1098;25048;-74
2020/12/03 01:26:36;;;;;;;78.02;42.20;;;;;;;-3.45;74.43;100424.19;126680;1098;23328;-73
2020/12/03 01:29:05;;;;;;;70.97;39.90;;;;;;;-3.43;74.08;100416.09;126574;1099;26817;-74
2020/12/03 01:31:33;;;;;;;84.15;44.30;;;;;;;-3.43;74.25;100421.43;126735;1098;23496;-74
2020/12/03 01:34:01;;;;;;;74.00;43.60;;;;;;;-3.44;74.30;100417.03;126667;1098;25038;-74
2020/12/03 01:36:29;;;;;;;71.72;41.37;;;;;;;-3.42;74.64;100425.79;126709;1099;25080;-75
2020/12/03 01:38:57;;;;;;;75.17;42.97;;;;;;;-3.39;74.79;100422.91;126711;1098;23390;-73
2020/12/03 01:41:25;;;;;;;73.83;40.10;;;;;;;-3.36;74.93;100434.25;126725;1098;27498;-75
2020/12/03 01:43:54;;;;;;;77.32;42.03;;;;;;;-3.33;75.09;100419.84;126567;1098;27112;-75
2020/12/03 01:46:23;;;;;;;80.62;43.73;;;;;;;-3.27;74.63;100410.59;126682;1098;23366;-74
2020/12/03 01:49:05;;;;;;;74.62;41.92;;;;;;;-3.20;74.95;100409.22;126624;1098;23474;-76
2020/12/03 01:51:45;;;;;;;83.97;47.65;;;;;;;-3.17;75.36;100414.37;126750;1099;23396;-72
2020/12/03 01:54:19;;;;;;;77.17;43.68;;;;;;;-3.14;75.52;100412.33;126678;1098;23332;-73
2020/12/03 01:56:56;;;;;;;81.90;46.63;;;;;;;-3.10;75.06;100397.82;126632;1098;23346;-74
2020/12/03 01:59:39;;;;;;;76.82;42.70;;;;;;;-3.08;75.37;100395.91;126660;1098;26092;-74
2020/12/03 02:02:13;;;;;;;78.12;43.78;;;;;;;-3.09;74.63;100396.88;126683;1098;23346;-74
2020/12/03 02:04:42;;;;;;;86.45;46.92;;;;;;;-3.09;74.83;100396.88;126684;1098;26439;-74
2020/12/03 02:07:13;;;;;;;76.77;43.83;;;;;;;-3.05;75.37;100393.99;126690;1098;24620;-72
2020/12/03 02:09:41;;;;;;;81.10;46.73;;;;;;;-3.00;75.15;100394.55;126678;1098;23339;-72
2020/12/03 02:12:10;;;;;;;67.65;34.80;;;;;;;-3.02;75.32;100399.14;126701;1098;23348;-73
2020/12/03 02:14:44;;;;;;;90.42;48.08;;;;;;;-3.08;74.69;100385.23;126639;1098;25030;-73
2020/12/03 02:17:12;;;;;;;83.72;47.43;;;;;;;-3.10;74.80;100384.48;126593;1098;23533;-73
2020/12/03 02:19:41;;;;;;;82.08;41.98;;;;;;;-3.08;75.31;100377.22;126711;1098;26808;-74
2020/12/03 02:22:10;;;;;;;79.53;44.40;;;;;;;-3.08;74.93;100371.89;126672;1098;23389;-71
2020/12/03 02:24:41;;;;;;;87.78;45.73;;;;;;;-3.09;74.84;100378.20;126769;1098;26950;-73
2020/12/03 02:27:14;;;;;;;89.17;47.05;;;;;;;-3.06;75.46;100373.62;126649;1099;23401;-75
2020/12/03 02:29:43;;;;;;;82.05;42.62;;;;;;;-3.03;75.54;100365.39;126771;1098;23324;-74
2020/12/03 02:32:11;;;;;;;75.20;43.40;;;;;;;-3.02;75.35;100362.63;126708;1098;25626;-73
2020/12/03 02:34:44;;;;;;;64.82;34.78;;;;;;;-3.01;74.75;100366.14;126692;1099;23533;-73
2020/12/03 02:37:13;;;;;;;73.63;41.20;;;;;;;-3.09;74.99;100362.19;126703;1099;23424;-74
2020/12/03 02:39:43;;;;;;;73.90;40.43;;;;;;;-3.12;74.81;100357.04;126747;1098;23375;-74
2020/12/03 02:42:14;;;;;;;68.30;36.93;;;;;;;-3.13;74.95;100359.84;126620;1098;23445;-75
2020/12/03 02:44:46;;;;;;;68.20;39.20;;;;;;;-3.16;75.19;100354.69;126756;1098;23324;-74
2020/12/03 02:47:17;;;;;;;;;;;;;;;-3.20;74.94;100354.06;126775;1098;23335;-74
2020/12/03 02:49:48;;;;;;;68.60;37.27;;;;;;;-3.23;75.00;100348.91;126668;1098;21640;-75
2020/12/03 02:52:21;;;;;;;74.23;39.90;;;;;;;-3.24;74.89;100349.89;126744;1098;23346;-74
2020/12/03 02:54:51;;;;;;;62.60;34.23;;;;;;;-3.23;74.92;100338.23;126739;1098;23339;-73
2020/12/03 02:57:21;;;;;;;65.13;39.87;;;;;;;-3.23;75.51;100340.06;126674;1098;23336;-74
2020/12/03 02:59:50;;;;;;;77.78;41.18;;;;;;;-3.24;75.20;100346.34;126660;1098;23431;-74
2020/12/03 03:02:18;;;;;;;82.65;42.38;;;;;;;-3.24;75.23;100331.21;126711;1098;23329;-75
2020/12/03 03:04:46;;;;;;;76.28;40.63;;;;;;;-3.21;75.44;100330.14;126695;1098;23379;-74
2020/12/03 03:07:14;;;;;;;71.53;40.50;;;;;;;-3.20;75.73;100335.39;126640;1098;23581;-73
2020/12/03 03:09:43;;;;;;;69.80;38.50;;;;;;;-3.16;75.11;100341.34;126730;1098;24802;-74
2020/12/03 03:12:11;;;;;;;68.17;39.15;;;;;;;-3.13;75.82;100360.69;126618;1098;23343;-74
2020/12/03 03:14:39;;;;;;;76.97;43.87;;;;;;;-3.10;75.70;100365.80;126719;1098;27003;-74
2020/12/03 03:17:07;;;;;;;72.20;41.33;;;;;;;-3.10;74.97;100365.80;126697;1098;23339;-74
2020/12/03 03:19:35;;;;;;;45.15;26.45;;;;;;;-3.16;75.11;100354.69;126681;1098;26402;-73
2020/12/03 03:22:04;;;;;;;65.92;38.25;;;;;;;-3.20;75.60;100363.86;126701;1098;23339;-74
2020/12/03 03:24:32;;;;;;;66.37;36.95;;;;;;;-3.21;75.85;100352.33;126618;1098;23338;-73
2020/12/03 03:27:00;;;;;;;66.82;39.33;;;;;;;-3.18;75.30;100346.81;126652;1098;23387;-74
2020/12/03 03:29:29;;;;;;;67.20;39.78;;;;;;;-3.15;75.93;100341.25;126702;1098;23423;-74
2020/12/03 03:31:57;;;;;;;73.12;40.35;;;;;;;-3.13;75.79;100344.67;126689;1098;23556;-73
2020/12/03 03:34:26;;;;;;;72.32;42.27;;;;;;;-3.08;75.39;100331.86;126701;1098;23529;-74
2020/12/03 03:36:54;;;;;;;62.40;36.63;;;;;;;-3.05;75.25;100313.92;126691;1098;26785;-74
2020/12/03 03:39:24;;;;;;;74.55;42.08;;;;;;;-3.06;75.64;100318.42;126670;1098;23429;-75
2020/12/03 03:41:54;;;;;;;71.80;40.17;;;;;;;-3.10;75.29;100308.91;126718;1098;23317;-73
2020/12/03 03:44:22;;;;;;;54.65;30.08;;;;;;;-3.14;75.68;100310.92;126579;1098;23337;-74
2020/12/03 03:46:51;;;;;;;63.58;37.78;;;;;;;-3.16;75.71;100307.53;126722;1098;23439;-74
2020/12/03 03:49:19;;;;;;;68.78;39.15;;;;;;;-3.17;75.19;100324.48;126772;1098;23387;-74
2020/12/03 03:51:50;;;;;;;77.97;40.57;;;;;;;-3.20;75.50;100322.05;126735;1098;23397;-73
2020/12/03 03:54:18;;;;;;;64.05;40.17;;;;;;;-3.19;75.94;100317.55;126649;1098;26789;-74
2020/12/03 03:56:46;;;;;;;49.42;27.40;;;;;;;-3.19;75.81;100322.89;126689;1099;25073;-73
2020/12/03 03:59:15;;;;;;;61.02;35.35;;;;;;;-3.17;75.19;100316.48;126749;1098;27998;-74
2020/12/03 04:01:43;;;;;;;74.42;40.08;;;;;;;-3.18;75.76;100308.58;126613;1098;25232;-73
2020/12/03 04:04:11;;;;;;;54.93;32.90;;;;;;;-3.20;75.93;100311.37;126743;1098;23494;-77
2020/12/03 04:06:39;;;;;;;65.78;37.63;;;;;;;-3.21;75.19;100314.98;126660;1098;23345;-76
2020/12/03 04:09:07;;;;;;;72.62;39.83;;;;;;;-3.19;75.93;100307.73;126693;1098;24805;-76
2020/12/03 04:11:35;;;;;;;70.92;37.25;;;;;;;-3.17;75.65;100302.30;126611;1098;23328;-75
2020/12/03 04:14:04;;;;;;;67.65;40.23;;;;;;;-3.15;75.41;100287.88;126635;1098;25047;-75
2020/12/03 04:16:32;;;;;;;73.28;42.85;;;;;;;-3.14;75.28;100283.39;126595;1098;23380;-74
2020/12/03 04:19:00;;;;;;;68.90;39.20;;;;;;;-3.12;75.90;100282.32;126722;1098;24934;-75
2020/12/03 04:21:28;;;;;;;75.08;41.80;;;;;;;-3.09;75.59;100273.28;126728;1099;26383;-75
2020/12/03 04:23:57;;;;;;;60.10;33.65;;;;;;;-3.09;75.81;100263.45;126687;1098;23397;-77
2020/12/03 04:26:25;;;;;;;75.17;41.35;;;;;;;-3.06;75.74;100261.53;126684;1098;26807;-74
2020/12/03 04:28:53;;;;;;;65.55;36.88;;;;;;;-3.08;75.86;100264.30;126736;1098;23393;-75
2020/12/03 04:31:21;;;;;;;74.22;43.48;;;;;;;-3.06;75.26;100270.38;126707;1098;23533;-75
2020/12/03 04:33:49;;;;;;;79.07;43.70;;;;;;;-3.05;75.28;100271.23;126604;1099;23336;-74
2020/12/03 04:36:18;;;;;;;74.95;44.65;;;;;;;-3.02;75.67;100269.21;126708;1098;23395;-75
2020/12/03 04:38:46;;;;;;;76.50;40.98;;;;;;;-3.04;75.34;100252.45;126634;1098;23400;-76
2020/12/03 04:41:16;;;;;;;64.00;37.50;;;;;;;-3.04;75.91;100251.60;126727;1098;23328;-74
2020/12/03 04:44:19;;;;;;;78.43;43.83;;;;;;;-3.02;75.23;100255.02;126692;1098;26434;-74
2020/12/03 04:47:34;;;;;;;91.50;47.80;;;;;;;-3.03;75.30;100250.63;126724;1098;23378;-74
2020/12/03 04:50:19;;;;;;;84.47;47.40;;;;;;;-3.05;75.68;100244.54;126145;1102;23368;-75
2020/12/03 04:52:59;;;;;;;73.37;43.85;;;;;;;-3.06;75.82;100238.36;126211;1102;23842;-74
2020/12/03 04:55:55;;;;;;;90.47;46.63;;;;;;;-3.06;75.81;100238.36;126209;1102;23411;-76
2020/12/03 04:58:29;;;;;;;84.20;45.85;;;;;;;-3.06;75.11;100234.84;126190;1101;23431;-74
2020/12/03 05:01:37;;;;;;;97.40;52.50;;;;;;;-3.04;75.91;100222.25;126149;1102;23356;-75
2020/12/03 05:04:10;;;;;;;80.93;46.77;;;;;;;-3.02;75.99;100223.84;126151;1101;23422;-73
2020/12/03 05:06:56;;;;;;;79.05;44.40;;;;;;;-3.02;75.29;100215.83;126167;1101;23422;-77
2020/12/03 05:09:45;;;;;;;82.22;48.38;;;;;;;-3.03;75.61;100214.14;126170;1101;27179;-74
2020/12/03 05:12:23;;;;;;;88.15;46.70;;;;;;;-3.02;76.01;100206.98;126186;1101;23465;-74
2020/12/03 05:15:13;;;;;;;86.87;46.53;;;;;;;-3.00;75.53;100205.91;126156;1102;23450;-74
2020/12/03 05:17:44;;;;;;;85.23;44.63;;;;;;;-2.99;75.91;100199.59;126195;1101;23830;-75
2020/12/03 05:20:44;;;;;;;81.22;44.00;;;;;;;-3.01;75.53;100198.00;126132;1101;23460;-74
2020/12/03 05:23:21;;;;;;;72.42;39.55;;;;;;;-3.05;74.98;100204.51;126108;1101;23474;-74
2020/12/03 05:25:53;;;;;;;82.92;44.77;;;;;;;-3.14;74.89;100193.52;126118;1101;23407;-73
2020/12/03 05:28:21;;;;;;;79.07;45.03;;;;;;;-3.14;75.68;100187.34;126629;1098;23336;-74
2020/12/03 05:30:52;;;;;;;83.33;42.35;;;;;;;-3.16;74.94;100189.25;126692;1098;23339;-74
2020/12/03 05:33:20;;;;;;;91.60;50.25;;;;;;;-3.19;75.27;100182.33;126669;1098;24518;-75
2020/12/03 05:35:49;;;;;;;88.57;52.60;;;;;;;-3.18;75.62;100180.50;126686;1098;23328;-73
2020/12/03 05:38:24;;;;;;;95.57;51.55;;;;;;;-3.14;75.29;100190.84;126687;1098;23379;-73
2020/12/03 05:40:59;;;;;;;94.73;51.17;;;;;;;-3.10;75.56;100186.16;126727;1098;23539;-74
2020/12/03 05:43:30;;;;;;;112.28;55.55;;;;;;;-3.11;75.53;100185.31;126638;1098;23321;-74
2020/12/03 05:46:02;;;;;;;86.60;48.48;;;;;;;-3.08;75.17;100185.08;126601;1099;23610;-74
2020/12/03 05:48:30;;;;;;;99.30;50.10;;;;;;;-3.11;75.40;100182.64;126634;1098;23379;-74
2020/12/03 05:51:27;;;;;;;88.47;48.77;;;;;;;-3.14;75.09;100177.51;126676;1098;26922;-75
2020/12/03 05:54:01;;;;;;;85.70;49.25;;;;;;;-3.13;75.54;100184.56;126639;1098;23379;-75
2020/12/03 05:56:31;;;;;;;104.23;55.33;;;;;;;-3.13;75.28;100179.23;126684;1098;25070;-73
2020/12/03 05:59:21;;;;;;;94.03;51.35;;;;;;;-3.10;75.84;100176.33;126679;1098;24932;-73
2020/12/03 06:02:13;;;;;;;98.70;57.30;;;;;;;-3.13;75.18;100168.55;126623;1098;23391;-75
2020/12/03 06:04:51;;;;;;;103.62;53.87;;;;;;;-3.09;75.63;100175.39;126648;1098;26405;-72
2020/12/03 06:08:13;;;;;;;103.62;53.10;;;;;;;-3.07;75.72;100175.28;126651;1099;23530;-74
2020/12/03 06:10:58;;;;;;;94.85;51.90;;;;;;;-3.08;75.21;100163.73;126716;1098;26402;-73
2020/12/03 06:13:39;;;;;;;127.30;61.37;;;;;;;-3.02;75.97;100166.95;126672;1098;23390;-73
2020/12/03 06:16:43;;;;;;;430.35;176.10;;;;;;;-2.98;75.50;100155.94;126742;1098;23533;-73
2020/12/03 06:19:46;;;;;;;281.95;115.20;;;;;;;-2.95;75.46;100161.05;126717;1098;23325;-73
2020/12/03 06:22:47;;;;;;;322.90;136.40;;;;;;;-2.94;75.64;100157.43;126731;1098;26784;-75
2020/12/03 06:25:20;;;;;;;134.25;61.08;;;;;;;-2.95;75.21;100154.86;126699;1098;27748;-73
2020/12/03 06:27:54;;;;;;;118.00;58.42;;;;;;;-2.93;75.23;100163.61;126649;1098;25448;-74
2020/12/03 06:30:30;;;;;;;115.80;57.78;;;;;;;-2.88;75.30;100166.79;126686;1098;23388;-73
2020/12/03 06:33:22;;;;;;;117.22;59.75;;;;;;;-2.84;75.46;100162.09;126744;1098;26314;-73
2020/12/03 06:35:59;;;;;;;;;;;;;;;-2.83;75.23;100153.98;126774;1099;27980;-75
2020/12/03 06:38:37;;;;;;;115.77;57.10;;;;;;;-2.80;75.16;100163.59;126682;1098;21497;-73
2020/12/03 06:41:29;;;;;;;81.83;43.27;;;;;;;-2.80;75.02;100161.76;126578;1098;23855;-71
2020/12/03 06:44:40;;;;;;;91.67;46.88;;;;;;;-2.82;74.98;100161.02;126642;1098;23658;-71
2020/12/03 06:47:40;;;;;;;99.22;46.92;;;;;;;-2.83;75.25;100148.64;126802;1098;23404;-70
2020/12/03 06:50:22;;;;;;;94.42;49.50;;;;;;;-2.82;74.89;100154.83;126681;1098;26789;-72
2020/12/03 06:53:32;;;;;;;;;;;;;;;-2.82;75.01;100155.67;126828;1098;23331;-71
2020/12/03 06:56:46;;;;;;;68.73;29.37;;;;;;;-2.83;74.89;100158.48;126192;1101;21516;-72
2020/12/03 06:59:51;;;;;;;78.80;39.58;;;;;;;-2.91;74.78;100159.02;126182;1101;23392;-71
2020/12/03 07:02:40;;;;;;;115.45;52.98;;;;;;;-2.94;74.72;100151.25;126252;1101;25211;-72
2020/12/03 07:05:23;;;;;;;116.25;54.70;;;;;;;-2.93;75.02;100163.61;126189;1101;27934;-71
2020/12/03 07:08:13;;;;;;;116.00;54.95;;;;;;;-2.89;74.79;100159.77;126185;1102;23503;-71
2020/12/03 07:11:41;;;;;;;125.30;57.98;;;;;;;-2.89;74.81;100155.27;126211;1101;23418;-72
2020/12/03 07:15:06;;;;;;;123.92;57.53;;;;;;;-2.80;75.32;100158.24;125848;1105;26897;-71
2020/12/03 07:17:49;;;;;;;88.58;46.13;;;;;;;-2.65;75.50;100167.80;125460;1108;26888;-74
2020/12/03 07:20:29;;;;;;;81.50;43.53;;;;;;;-2.68;74.60;100160.88;125435;1108;23504;-73
2020/12/03 07:23:05;;;;;;;85.80;46.10;;;;;;;-2.68;74.89;100160.03;125408;1108;23443;-71
2020/12/03 07:25:42;;;;;;;138.68;70.12;;;;;;;-2.67;75.08;100165.27;125445;1108;26494;-71
2020/12/03 07:28:24;;;;;;;134.37;62.45;;;;;;;-2.64;74.71;100161.52;125444;1107;23551;-71
2020/12/03 07:30:57;;;;;;;175.78;76.15;;;;;;;-2.61;75.28;100153.27;125416;1107;23637;-70
2020/12/03 07:34:09;;;;;;;154.25;70.50;;;;;;;-2.57;75.44;100143.23;125698;1104;23411;-71
2020/12/03 07:37:07;;;;;;;142.60;65.80;;;;;;;-2.53;74.67;100142.04;125820;1105;23512;-72
2020/12/03 07:39:37;;;;;;;133.50;63.33;;;;;;;-2.51;74.77;100143.62;125880;1104;26466;-72
2020/12/03 07:42:14;;;;;;;106.50;57.27;;;;;;;-2.49;75.25;100141.70;126011;1105;23580;-72
2020/12/03 07:44:46;;;;;;;126.35;62.93;;;;;;;-2.48;74.66;100147.88;125884;1104;23428;-72
2020/12/03 07:47:38;;;;;;;129.07;62.57;;;;;;;-2.48;75.25;100147.88;125955;1104;23547;-70
2020/12/03 07:50:26;;;;;;;117.83;51.43;;;;;;;-2.43;74.64;100151.08;126789;1098;23344;-71
2020/12/03 07:53:21;;;;;;;123.87;64.87;;;;;;;-2.40;75.00;100150.00;126805;1098;23382;-70
2020/12/03 07:55:50;;;;;;;146.43;80.28;;;;;;;-2.40;74.95;100134.81;126684;1098;23399;-71
2020/12/03 07:58:38;;;;;;;126.85;62.95;;;;;;;-2.35;74.80;100137.14;126772;1098;23333;-70
2020/12/03 08:01:31;;;;;;;106.22;55.30;;;;;;;-2.28;74.65;100135.73;126692;1098;24885;-70
2020/12/03 08:04:08;;;;;;;;;;;;;;;-2.24;74.98;100130.99;126662;1098;26830;-72
2020/12/03 08:06:40;;;;;;;101.70;50.90;;;;;;;-2.21;74.82;100131.63;126776;1099;24202;-72
2020/12/03 08:09:09;;;;;;;127.07;60.88;;;;;;;-2.17;75.26;100134.93;126667;1098;23343;-71
2020/12/03 08:11:46;;;;;;;131.35;61.85;;;;;;;-2.10;75.33;100126.31;126776;1098;23479;-71
2020/12/03 08:14:43;;;;;;;112.47;57.83;;;;;;;-2.02;74.86;100123.08;126730;1098;25074;-73
2020/12/03 08:17:15;;;;;;;110.63;58.50;;;;;;;-1.94;75.15;100114.45;126654;1099;27901;-72
2020/12/03 08:19:48;;;;;;;145.80;63.87;;;;;;;-1.85;75.28;100119.11;126723;1098;23382;-72
2020/12/03 08:22:32;;;;;;;112.62;60.45;;;;;;;-1.78;75.09;100124.84;126733;1099;23328;-72
2020/12/03 08:25:27;;;;;;;217.93;85.60;;;;;;;-1.73;75.09;100122.65;126819;1098;26950;-72
2020/12/03 08:28:05;;;;;;;175.05;76.25;;;;;;;-1.67;75.13;100115.00;126742;1098;23473;-72
2020/12/03 08:30:41;;;;;;;114.62;57.85;;;;;;;-1.61;74.87;100108.34;126652;1098;23445;-72
2020/12/03 08:33:18;;;;;;;140.25;63.15;;;;;;;-1.59;74.10;100108.23;126672;1098;23382;-70
2020/12/03 08:35:55;;;;;;;159.87;72.35;;;;;;;-1.59;74.67;100103.72;126759;1098;23533;-71
2020/12/03 08:38:53;;;;;;;181.35;76.95;;;;;;;-1.57;74.15;100107.12;126661;1098;23590;-72
2020/12/03 08:41:27;;;;;;;137.70;60.52;;;;;;;-1.59;73.71;100109.06;126764;1098;23392;-72
2020/12/03 08:44:02;;;;;;;151.30;71.85;;;;;;;-1.61;74.37;100116.36;126527;1099;23379;-72
2020/12/03 08:46:34;;;;;;;111.37;54.95;;;;;;;-1.63;74.00;100115.63;126660;1098;23394;-70
2020/12/03 08:49:05;;;;;;;133.87;66.33;;;;;;;-1.67;73.86;100104.30;126715;1098;24803;-71
2020/12/03 08:51:36;;;;;;;88.90;47.57;;;;;;;-1.70;73.55;100114.41;126688;1098;23346;-72
2020/12/03 08:54:05;;;;;;;118.10;56.73;;;;;;;-1.69;73.86;100108.92;126538;1098;24800;-72
2020/12/03 08:56:39;;;;;;;117.82;57.15;;;;;;;-1.60;74.27;100117.20;126439;1098;23391;-71
2020/12/03 08:59:12;;;;;;;124.50;60.50;;;;;;;-1.54;74.17;100124.75;126656;1098;23316;-71
2020/12/03 09:02:01;;;;;;;98.85;54.73;;;;;;;-1.55;74.14;100123.07;126742;1098;23336;-70
2020/12/03 09:04:38;;;;;;;110.45;56.88;;;;;;;-1.58;74.06;100124.16;126639;1098;23379;-72
2020/12/03 09:07:09;;;;;;;118.80;54.50;;;;;;;-1.56;73.38;100129.38;126715;1098;23340;-70
2020/12/03 09:09:39;;;;;;;119.30;57.40;;;;;;;-1.56;73.94;100124.87;126744;1098;24922;-71
2020/12/03 09:12:10;;;;;;;157.77;70.40;;;;;;;-1.51;74.01;100114.67;126688;1098;23374;-72
2020/12/03 09:14:42;;;;;;;115.63;56.80;;;;;;;-1.44;73.73;100128.42;126745;1098;23345;-71
2020/12/03 09:17:15;;;;;;;113.37;58.53;;;;;;;-1.38;73.53;100124.43;126710;1098;23379;-72
2020/12/03 09:19:44;;;;;;;126.33;62.77;;;;;;;-1.31;73.98;100117.61;126692;1098;24954;-71
2020/12/03 09:22:17;;;;;;;86.37;48.90;;;;;;;-1.27;74.07;100119.07;126632;1098;23798;-73
2020/12/03 09:24:49;;;;;;;90.05;50.60;;;;;;;-1.32;73.13;100111.41;126694;1098;23336;-71
2020/12/03 09:27:20;;;;;;;79.70;50.27;;;;;;;-1.37;73.20;100120.77;126720;1098;23382;-72
2020/12/03 09:30:05;;;;;;;113.75;57.13;;;;;;;-1.41;72.90;100127.33;126660;1098;23333;-71
2020/12/03 09:32:39;;;;;;;93.05;49.90;;;;;;;-1.42;73.38;100109.59;126774;1098;23392;-69
2020/12/03 09:35:12;;;;;;;99.15;50.60;;;;;;;-1.39;73.29;100115.52;126678;1098;23328;-70
2020/12/03 09:37:40;;;;;;;142.75;64.77;;;;;;;-1.37;73.56;100112.73;126672;1098;23423;-71
2020/12/03 09:40:09;;;;;;;124.90;65.47;;;;;;;-1.33;73.46;100108.84;126692;1098;27899;-71
2020/12/03 09:42:48;;;;;;;79.95;45.88;;;;;;;-1.29;73.60;100112.98;126548;1098;23533;-70
2020/12/03 09:45:22;;;;;;;82.82;47.50;;;;;;;-1.30;73.36;100109.47;126736;1098;27118;-70
2020/12/03 09:47:51;;;;;;;77.45;45.63;;;;;;;-1.32;72.90;100108.73;126684;1098;23707;-71
2020/12/03 09:50:23;;;;;;;75.70;47.08;;;;;;;-1.30;73.11;100112.14;126511;1098;23382;-73
2020/12/03 09:52:54;;;;;;;80.53;45.50;;;;;;;-1.28;72.85;100112.00;126645;1099;26542;-70
2020/12/03 09:55:24;;;;;;;93.03;48.13;;;;;;;-1.25;73.37;100095.72;126669;1098;28000;-70
2020/12/03 09:57:56;;;;;;;89.85;52.65;;;;;;;-1.24;73.32;100092.05;126643;1099;26402;-70
2020/12/03 10:00:31;;;;;;;88.17;51.35;;;;;;;-1.21;73.34;100086.47;126667;1098;27830;-69
2020/12/03 10:03:37;;;;;;;89.17;50.77;;;;;;;-1.15;72.80;100080.63;126668;1098;23325;-70
2020/12/03 10:06:35;;;;;;;111.37;57.50;;;;;;;-1.10;73.36;100078.42;126689;1098;23337;-70
2020/12/03 10:09:51;;;;;;;86.08;51.25;;;;;;;-1.06;73.29;100079.88;126664;1099;27106;-72
2020/12/03 10:13:06;;;;;;;101.70;58.70;;;;;;;-1.00;72.94;100077.67;126647;1098;23379;-72
2020/12/03 10:15:56;;;;;;;73.70;42.90;;;;;;;-0.96;73.06;100076.45;126710;1098;23329;-71
2020/12/03 10:18:54;;;;;;;81.47;47.67;;;;;;;-0.96;72.76;100068.41;126682;1098;23390;-71
2020/12/03 10:21:33;;;;;;;72.08;42.48;;;;;;;-0.93;73.00;100074.38;126709;1098;23391;-71
2020/12/03 10:24:19;;;;;;;100.95;54.27;;;;;;;-0.92;72.61;100061.84;126686;1098;25607;-71
2020/12/03 10:27:39;;;;;;;86.33;45.00;;;;;;;-0.89;72.54;100061.61;126752;1098;23379;-72
2020/12/03 10:30:12;;;;;;;94.37;51.50;;;;;;;-0.93;72.65;100057.47;126162;1101;23431;-70
2020/12/03 10:32:46;;;;;;;104.17;56.28;;;;;;;-0.90;72.63;100047.34;126166;1102;26832;-72
2020/12/03 10:35:15;;;;;;;108.00;62.57;;;;;;;-0.82;73.14;100049.41;126206;1102;23351;-70
2020/12/03 10:37:48;;;;;;;102.85;56.85;;;;;;;-0.76;72.54;100043.55;126165;1101;23337;-71
2020/12/03 10:40:19;;;;;;;97.25;54.80;;;;;;;-0.76;72.90;100030.16;126166;1102;24904;-70
2020/12/03 10:43:03;;;;;;;98.55;52.23;;;;;;;-0.77;72.32;100020.41;126138;1101;23345;-70
2020/12/03 10:45:38;;;;;;;103.27;57.60;;;;;;;-0.76;72.84;100021.27;126159;1101;23412;-70
2020/12/03 10:48:37;;;;;;;97.10;54.80;;;;;;;-0.75;72.60;100012.25;126168;1102;23340;-71
2020/12/03 10:51:08;;;;;;;99.30;55.43;;;;;;;-0.79;72.29;100017.03;126170;1102;26529;-71
2020/12/03 10:53:38;;;;;;;104.97;55.43;;;;;;;-0.79;72.99;100017.03;126164;1101;23552;-71
2020/12/03 10:56:09;;;;;;;113.57;60.52;;;;;;;-0.80;72.18;100012.63;126173;1102;23382;-71
2020/12/03 10:58:55;;;;;;;93.95;52.17;;;;;;;-0.81;73.05;100018.98;126184;1102;23415;-72
2020/12/03 11:01:31;;;;;;;105.10;57.40;;;;;;;-0.76;72.78;100016.77;126226;1102;23410;-71
2020/12/03 11:04:05;;;;;;;104.83;56.23;;;;;;;-0.75;73.15;100010.41;126145;1101;23767;-72
2020/12/03 11:06:34;;;;;;;111.65;60.23;;;;;;;-0.73;73.13;100010.30;126400;1099;23386;-70
2020/12/03 11:09:05;;;;;;;114.95;62.73;;;;;;;-0.73;72.91;100005.78;126713;1098;23463;-73
2020/12/03 11:11:37;;;;;;;102.02;56.02;;;;;;;-0.71;73.36;100001.14;126774;1098;23551;-71
2020/12/03 11:14:09;;;;;;;;;;;;;;;-0.69;73.31;100001.87;126741;1098;23392;-70
2020/12/03 11:16:46;;;;;;;109.92;58.87;;;;;;;-0.70;73.51;99992.15;126716;1098;21493;-70
2020/12/03 11:19:37;;;;;;;128.38;66.40;;;;;;;-0.66;73.18;99990.91;126720;1098;23333;-70
2020/12/03 11:22:39;;;;;;;120.08;62.27;;;;;;;-0.66;73.16;99987.39;126659;1098;23349;-71
2020/12/03 11:25:13;;;;;;;110.00;59.95;;;;;;;-0.67;73.12;99972.28;126679;1098;26785;-70
2020/12/03 11:27:43;;;;;;;115.88;62.88;;;;;;;-0.67;73.24;99961.56;126753;1098;23329;-74
2020/12/03 11:30:27;;;;;;;136.80;69.97;;;;;;;-0.64;73.52;99967.53;126611;1098;23462;-72
2020/12/03 11:33:00;;;;;;;97.40;54.67;;;;;;;-0.66;73.26;99956.09;126575;1098;23379;-71
2020/12/03 11:35:41;;;;;;;108.45;54.58;;;;;;;-0.67;73.67;99940.14;126577;1098;23421;-70
2020/12/03 11:38:15;;;;;;;111.95;57.45;;;;;;;-0.71;73.58;99942.22;126692;1099;23360;-71
2020/12/03 11:40:55;;;;;;;105.80;56.88;;;;;;;-0.71;73.50;99942.22;126704;1098;23442;-71
2020/12/03 11:48:55;;;;;;;109.80;60.65;;;;;;;-0.67;73.83;99916.87;126616;1098;26900;-71
2020/12/03 11:51:36;;;;;;;110.22;58.52;;;;;;;-0.67;74.04;99908.84;126681;1098;26481;-70